Terminal Aerodrome Forecast
Issued by NWS

Home | Current Version | Previous Version | Text Only | Print | Product List | Glossary On
Versions: 1 2 3 4 5 6 7 8 9 10 11 12 13
000
FTUS44 KLIX 241140
TAFHUM
TAF
KHUM 241140Z 2412/2512 02006KT P6SM VCSH SCT040
     FM241600 07008KT P6SM VCTS SCT040CB BKN100
     FM242100 08007KT P6SM SCT040 BKN100 PROB30 2421/2503 4SM -TSRA
      BKN040CB=

USA.gov is the U.S. government's official web portal to all federal, state and local government web resources and services.